Homer, New York
Current Conditions -  °F | °C
As of 1:15 PM on Thursday 30 Oct 2014 (Local Time) from KN03 Reporting Station
Overcast Overcast  
Wind Chill: 38°   Ceiling: 2700
Heat Index: 43°   Visibility: 10mi
Dew Point: 37°   Wind: 8mph
Humidity: 81%   Direction: 290°WNW
Pressure: 30.04"   Gusts: NA
Location:  42.64°N, 76.18°W
Report Text: KN03 301715Z AUTO 29007KT 10SM SCT023 BKN027 OVC038 06/03 A3004 RMK AO2
Loading
Personal Weather Stations






























Interactive Weather Map
Tropical Storm Tracking
New forecast layout! Learn more

10-Day Weather Forecast

Advertisements
Track Severe Weather on mobile